Galileo — SX2040 — position and weather

sailwx.info

Track history (hours):
 
Tides and Currents Weather Stations Pressure Air Temp Water Temp Dewpoint Dewpoint Depression Visibility Wind Speed Wind Dir Waves Ship Positions

Galileo

Last reported at 2015-Apr-17 20:33 UTC. Time now 2015-Apr-20 00:48 UTC.
Position N 38°05' E 022°42'.

Length 40 m; draft 3 m.

Type: Passenger vessel. MMSI: 239299000.

Date/timePositionNaut miles runAvg speedWind from/ knotsBaromVisibWave heightAir tempDewpointWater temp
2015-Apr-17 20:33N 38°05' E 022°42'33 8.3
2015-Apr-17 16:33N 37°51' E 023°20'10 9.7
2015-Apr-17 15:33N 37°51' E 023°32'7 7.5
2015-Apr-17 14:33N 37°56' E 023°39'0 0.0
2015-Apr-17 13:33N 37°56' E 023°39'0 0.0
2015-Apr-17 12:33N 37°56' E 023°39'0 0.0
2015-Apr-17 11:33N 37°56' E 023°39'0 0.0
2015-Apr-17 10:33N 37°56' E 023°39'0 0.0
2015-Apr-17 09:33N 37°56' E 023°39'0 0.0
2015-Apr-17 08:33N 37°56' E 023°39'0 0.0
2015-Apr-17 07:33N 37°56' E 023°39'0 0.0
2015-Apr-17 06:33N 37°56' E 023°39'0 0.0
2015-Apr-17 05:33N 37°56' E 023°39'0 0.0
2015-Apr-17 04:33N 37°56' E 023°39'0 0.0
2015-Apr-17 03:33N 37°56' E 023°39'0 0.0
2015-Apr-17 02:32N 37°56' E 023°39'0 0.0
2015-Apr-17 01:33N 37°56' E 023°39'0 0.0
2015-Apr-17 00:33N 37°56' E 023°39'0 0.0
2015-Apr-16 23:33N 37°56' E 023°39'0 0.0
2015-Apr-16 22:33N 37°56' E 023°39'0 0.0
2015-Apr-16 21:33N 37°56' E 023°39'0 0.0
2015-Apr-16 20:33N 37°56' E 023°39'0 0.0
2015-Apr-16 19:33N 37°56' E 023°39'0 0.0
2015-Apr-16 18:33N 37°56' E 023°39'3 2.9
2015-Apr-16 17:33N 37°54' E 023°37'  
2015-Apr-11 06:16N 37°34' E 022°47'31 7.5
2015-Apr-11 02:10N 37°19' E 023°21'610.4
2015-Apr-11 01:33N 37°22' E 023°28'7 6.7
2015-Apr-11 00:34N 37°29' E 023°30'3 0.4
2015-Apr-10 17:32N 37°30' E 023°27'6 6.1
2015-Apr-10 16:33N 37°36' E 023°29'1010.0
2015-Apr-10 15:33N 37°45' E 023°35'1010.3
2015-Apr-10 14:33N 37°54' E 023°39'2 1.6
2015-Apr-10 13:33N 37°56' E 023°39'0 0.0
2015-Apr-10 12:33N 37°56' E 023°39'0 0.0
2015-Apr-10 11:33N 37°56' E 023°39'0 0.0
2015-Apr-10 10:34N 37°56' E 023°39'0 0.0
2015-Apr-10 09:34N 37°56' E 023°39'0 0.0
2015-Apr-10 08:34N 37°56' E 023°39'0 0.0
2015-Apr-10 07:34N 37°56' E 023°39'0 0.0
2015-Apr-10 06:33N 37°56' E 023°39'0 0.0
2015-Apr-10 05:34N 37°56' E 023°39'0 0.0
2015-Apr-10 04:33N 37°56' E 023°39'0 0.0
2015-Apr-10 03:34N 37°56' E 023°39'0 0.0
2015-Apr-10 02:33N 37°56' E 023°39'0 0.0
2015-Apr-10 01:34N 37°56' E 023°39'0 0.0
2015-Apr-10 00:33N 37°56' E 023°39'0 0.0
2015-Apr-09 23:33N 37°56' E 023°39'0 0.0
2015-Apr-09 22:34N 37°56' E 023°39'0 0.0
2015-Apr-09 21:34N 37°56' E 023°39'0 0.0
2015-Apr-09 20:33N 37°56' E 023°39'0 0.0
2015-Apr-09 19:34N 37°56' E 023°39'0 0.0
2015-Apr-09 18:34N 37°56' E 023°39'0 0.0
2015-Apr-09 17:33N 37°56' E 023°39'5 4.9
2015-Apr-09 16:34N 37°57' E 023°33'0 0.2
2015-Apr-09 15:33N 37°57' E 023°33'0 0.0
2015-Apr-09 14:33N 37°57' E 023°33'0 0.0
2015-Apr-09 13:34N 37°57' E 023°33'0 0.0
2015-Apr-09 12:34N 37°57' E 023°33'0 0.0
2015-Apr-09 11:34N 37°57' E 023°33'0 0.0
2015-Apr-09 10:34N 37°57' E 023°33'0 0.0
2015-Apr-09 09:34N 37°57' E 023°33'0 0.0
2015-Apr-09 08:34N 37°57' E 023°33'0 0.0
2015-Apr-09 07:34N 37°57' E 023°33'0 0.0
2015-Apr-09 06:33N 37°57' E 023°33'0 0.0
2015-Apr-09 05:34N 37°57' E 023°33'0 0.0
2015-Apr-09 04:33N 37°57' E 023°33'0 0.0
2015-Apr-09 03:34N 37°57' E 023°33'0 0.0
2015-Apr-09 02:34N 37°57' E 023°33'0 0.0
2015-Apr-09 01:34N 37°57' E 023°33'0 0.0
2015-Apr-09 00:34N 37°57' E 023°33'0 0.0
2015-Apr-08 23:34N 37°57' E 023°33'0 0.0
2015-Apr-08 22:34N 37°57' E 023°33'0 0.0
2015-Apr-08 21:33N 37°57' E 023°33'0 0.0
2015-Apr-08 20:34N 37°57' E 023°33'0 0.0
2015-Apr-08 19:33N 37°57' E 023°33'0 0.0
2015-Apr-08 18:34N 37°57' E 023°33'0 0.0
2015-Apr-08 17:32N 37°57' E 023°33'0 0.0
2015-Apr-08 16:33N 37°57' E 023°33'0 0.0
2015-Apr-08 15:34N 37°57' E 023°33'0 0.0
2015-Apr-08 14:33N 37°57' E 023°33'0 0.0
2015-Apr-08 13:33N 37°57' E 023°33'0 0.0
2015-Apr-08 12:33N 37°57' E 023°33'0 0.0
2015-Apr-08 11:34N 37°57' E 023°33'0 0.0
2015-Apr-08 10:34N 37°57' E 023°33'0 0.0
2015-Apr-08 08:33N 37°57' E 023°33'  
Track history (hours):
 
Tides and Currents Weather Stations Pressure Air Temp Water Temp Dewpoint Dewpoint Depression Visibility Wind Speed Wind Dir Waves Ship Positions

Galileo

Last reported at 2015-Apr-17 20:33 UTC. Time now 2015-Apr-20 00:48 UTC.
Position N 38°05' E 022°42'.

Length 40 m; draft 3 m.

Type: Passenger vessel. MMSI: 239299000.

Date/timePositionNaut miles runAvg speedWind from/ knotsBaromVisibWave heightAir tempDewpointWater temp
2015-Apr-17 20:33N 38°05' E 022°42'33 8.3
2015-Apr-17 16:33N 37°51' E 023°20'10 9.7
2015-Apr-17 15:33N 37°51' E 023°32'7 7.5
2015-Apr-17 14:33N 37°56' E 023°39'0 0.0
2015-Apr-17 13:33N 37°56' E 023°39'0 0.0
2015-Apr-17 12:33N 37°56' E 023°39'0 0.0
2015-Apr-17 11:33N 37°56' E 023°39'0 0.0
2015-Apr-17 10:33N 37°56' E 023°39'0 0.0
2015-Apr-17 09:33N 37°56' E 023°39'0 0.0
2015-Apr-17 08:33N 37°56' E 023°39'0 0.0
2015-Apr-17 07:33N 37°56' E 023°39'0 0.0
2015-Apr-17 06:33N 37°56' E 023°39'0 0.0
2015-Apr-17 05:33N 37°56' E 023°39'0 0.0
2015-Apr-17 04:33N 37°56' E 023°39'0 0.0
2015-Apr-17 03:33N 37°56' E 023°39'0 0.0
2015-Apr-17 02:32N 37°56' E 023°39'0 0.0
2015-Apr-17 01:33N 37°56' E 023°39'0 0.0
2015-Apr-17 00:33N 37°56' E 023°39'0 0.0
2015-Apr-16 23:33N 37°56' E 023°39'0 0.0
2015-Apr-16 22:33N 37°56' E 023°39'0 0.0
2015-Apr-16 21:33N 37°56' E 023°39'0 0.0
2015-Apr-16 20:33N 37°56' E 023°39'0 0.0
2015-Apr-16 19:33N 37°56' E 023°39'0 0.0
2015-Apr-16 18:33N 37°56' E 023°39'3 2.9
2015-Apr-16 17:33N 37°54' E 023°37'  
2015-Apr-11 06:16N 37°34' E 022°47'31 7.5
2015-Apr-11 02:10N 37°19' E 023°21'610.4
2015-Apr-11 01:33N 37°22' E 023°28'7 6.7
2015-Apr-11 00:34N 37°29' E 023°30'3 0.4
2015-Apr-10 17:32N 37°30' E 023°27'6 6.1
2015-Apr-10 16:33N 37°36' E 023°29'1010.0
2015-Apr-10 15:33N 37°45' E 023°35'1010.3
2015-Apr-10 14:33N 37°54' E 023°39'2 1.6
2015-Apr-10 13:33N 37°56' E 023°39'0 0.0
2015-Apr-10 12:33N 37°56' E 023°39'0 0.0
2015-Apr-10 11:33N 37°56' E 023°39'0 0.0
2015-Apr-10 10:34N 37°56' E 023°39'0 0.0
2015-Apr-10 09:34N 37°56' E 023°39'0 0.0
2015-Apr-10 08:34N 37°56' E 023°39'0 0.0
2015-Apr-10 07:34N 37°56' E 023°39'0 0.0
2015-Apr-10 06:33N 37°56' E 023°39'0 0.0
2015-Apr-10 05:34N 37°56' E 023°39'0 0.0
2015-Apr-10 04:33N 37°56' E 023°39'0 0.0
2015-Apr-10 03:34N 37°56' E 023°39'0 0.0
2015-Apr-10 02:33N 37°56' E 023°39'0 0.0
2015-Apr-10 01:34N 37°56' E 023°39'0 0.0
2015-Apr-10 00:33N 37°56' E 023°39'0 0.0
2015-Apr-09 23:33N 37°56' E 023°39'0 0.0
2015-Apr-09 22:34N 37°56' E 023°39'0 0.0
2015-Apr-09 21:34N 37°56' E 023°39'0 0.0
2015-Apr-09 20:33N 37°56' E 023°39'0 0.0
2015-Apr-09 19:34N 37°56' E 023°39'0 0.0
2015-Apr-09 18:34N 37°56' E 023°39'0 0.0
2015-Apr-09 17:33N 37°56' E 023°39'5 4.9
2015-Apr-09 16:34N 37°57' E 023°33'0 0.2
2015-Apr-09 15:33N 37°57' E 023°33'0 0.0
2015-Apr-09 14:33N 37°57' E 023°33'0 0.0
2015-Apr-09 13:34N 37°57' E 023°33'0 0.0
2015-Apr-09 12:34N 37°57' E 023°33'0 0.0
2015-Apr-09 11:34N 37°57' E 023°33'0 0.0
2015-Apr-09 10:34N 37°57' E 023°33'0 0.0
2015-Apr-09 09:34N 37°57' E 023°33'0 0.0
2015-Apr-09 08:34N 37°57' E 023°33'0 0.0
2015-Apr-09 07:34N 37°57' E 023°33'0 0.0
2015-Apr-09 06:33N 37°57' E 023°33'0 0.0
2015-Apr-09 05:34N 37°57' E 023°33'0 0.0
2015-Apr-09 04:33N 37°57' E 023°33'0 0.0
2015-Apr-09 03:34N 37°57' E 023°33'0 0.0
2015-Apr-09 02:34N 37°57' E 023°33'0 0.0
2015-Apr-09 01:34N 37°57' E 023°33'0 0.0
2015-Apr-09 00:34N 37°57' E 023°33'0 0.0
2015-Apr-08 23:34N 37°57' E 023°33'0 0.0
2015-Apr-08 22:34N 37°57' E 023°33'0 0.0
2015-Apr-08 21:33N 37°57' E 023°33'0 0.0
2015-Apr-08 20:34N 37°57' E 023°33'0 0.0
2015-Apr-08 19:33N 37°57' E 023°33'0 0.0
2015-Apr-08 18:34N 37°57' E 023°33'0 0.0
2015-Apr-08 17:32N 37°57' E 023°33'0 0.0
2015-Apr-08 16:33N 37°57' E 023°33'0 0.0
2015-Apr-08 15:34N 37°57' E 023°33'0 0.0
2015-Apr-08 14:33N 37°57' E 023°33'0 0.0
2015-Apr-08 13:33N 37°57' E 023°33'0 0.0
2015-Apr-08 12:33N 37°57' E 023°33'0 0.0
2015-Apr-08 11:34N 37°57' E 023°33'0 0.0
2015-Apr-08 10:34N 37°57' E 023°33'0 0.0
2015-Apr-08 08:33N 37°57' E 023°33'  

Dump ship's entire track history